Terminal Aerodrome Forecast
Issued by NWS

Home | Current Version | Previous Version | Text Only | Print | Product List | Glossary On
Versions: 1 2 3 4 5 6 7 8 9 10 11 12 13 14 15 16 17 18
000
FTUS42 KGSP 252300
TAFGMU
TAF
KGMU 252325Z 2600/2624 15003KT P6SM SCT045
     FM261000 00000KT 6SM BR FEW010
     FM261300 23004KT P6SM FEW045
     FM261700 24007KT P6SM SCT050=

USA.gov is the U.S. government's official web portal to all federal, state and local government web resources and services.